Time;durP1;ratioP1;P1;durP2;ratioP2;P2;SDS_P1;SDS_P2;PMS_P1;PMS_P2;Temp;Humidity;BMP_temperature;BMP_pressure;BME280_temperature;BME280_humidity;BME280_pressure;Samples;Min_cycle;Max_cycle;Signal;HPM_P1;HPM_P2
2023/12/03 00:02:09;;;;;;;;;;;;;;;1.49;100.00;101793.31;5114511;28;19916;-40
2023/12/03 00:04:35;;;;;;;;;;;;;;;1.54;100.00;101787.72;5112893;28;20382;-39
2023/12/03 00:07:01;;;;;;;;;;;;;;;1.60;100.00;101789.13;5114448;28;19920;-38
2023/12/03 00:09:26;;;;;;;;;;;;;;;1.63;100.00;101786.25;5114339;28;20370;-38
2023/12/03 00:11:51;;;;;;;;;;;;;;;1.64;100.00;101794.13;5114216;28;19926;-40
2023/12/03 00:14:16;;;;;;;;;;;;;;;1.66;100.00;101788.72;5114149;28;19919;-38
2023/12/03 00:16:42;;;;;;;;;;;;;;;1.67;100.00;101788.63;5114103;28;19923;-38
2023/12/03 00:19:07;;;;;;;;;;;;;;;1.71;100.00;101789.25;5114194;28;20343;-40
2023/12/03 00:21:33;;;;;;;;;;;;;;;1.69;100.00;101789.38;5114154;28;19920;-39
2023/12/03 00:23:58;;;;;;;;;;;;;;;1.68;100.00;101784.16;5113425;27;20293;-39
2023/12/03 00:26:23;;;;;;;;;;;;;;;1.63;100.00;101780.94;5113822;28;19920;-40
2023/12/03 00:28:48;;;;;;;;;;;;;;;1.59;100.00;101785.63;5113912;28;19916;-39
2023/12/03 00:31:13;;;;;;;;;;;;;;;1.53;100.00;101789.53;5114213;28;20338;-40
2023/12/03 00:33:39;;;;;;;;;;;;;;;1.46;100.00;101790.03;5114771;28;19919;-38
2023/12/03 00:36:04;;;;;;;;;;;;;;;1.41;100.00;101785.00;5113784;28;19920;-38
2023/12/03 00:38:29;;;;;;;;;;;;;;;1.34;100.00;101783.69;5113904;28;19923;-41
2023/12/03 00:40:55;;;;;;;;;;;;;;;1.29;100.00;101783.16;5113611;28;20020;-40
2023/12/03 00:43:20;;;;;;;;;;;;;;;1.24;100.00;101779.97;5113828;28;19916;-39
2023/12/03 00:45:45;;;;;;;;;;;;;;;1.20;100.00;101773.13;5113592;28;19923;-40
2023/12/03 00:48:10;;;;;;;;;;;;;;;1.17;100.00;101787.44;5113076;28;19924;-39
2023/12/03 00:50:35;;;;;;;;;;;;;;;1.26;100.00;101791.31;5112962;28;19923;-39
2023/12/03 00:53:01;;;;;;;;;;;;;;;1.29;100.00;101788.44;5113664;28;20022;-39
2023/12/03 00:55:26;;;;;;;;;;;;;;;1.33;100.00;101789.97;5114059;28;19955;-39
2023/12/03 00:57:51;;;;;;;;;;;;;;;1.34;100.00;101796.13;5113383;28;19923;-40
2023/12/03 01:00:17;;;;;;;;;;;;;;;1.31;100.00;101786.56;5114422;28;19916;-40
2023/12/03 01:02:42;;;;;;;;;;;;;;;1.30;100.00;101790.16;5117050;28;19927;-39
2023/12/03 01:05:07;;;;;;;;;;;;;;;1.32;100.00;101793.59;5117601;28;19958;-40
2023/12/03 01:07:32;;;;;;;;;;;;;;;1.37;100.00;101790.59;5119762;28;19930;-39
2023/12/03 01:09:58;;;;;;;;;;;;;;;1.38;100.00;101787.88;5121306;28;19923;-40
2023/12/03 01:12:23;;;;;;;;;;;;;;;1.37;100.00;101794.13;5117282;28;19972;-38
2023/12/03 01:14:48;;;;;;;;;;;;;;;1.39;100.00;101799.31;5113806;28;19920;-40
2023/12/03 01:17:14;;;;;;;;;;;;;;;1.37;100.00;101796.78;5113258;28;19959;-41
2023/12/03 01:19:39;;;;;;;;;;;;;;;1.37;100.00;101806.53;5113943;28;20370;-40
2023/12/03 01:22:04;;;;;;;;;;;;;;;1.39;100.00;101809.94;5115855;28;19922;-40
2023/12/03 01:24:29;;;;;;;;;;;;;;;1.40;100.00;101806.34;5117239;28;19987;-39
2023/12/03 01:26:55;;;;;;;;;;;;;;;1.36;100.00;101808.31;5113773;28;19955;-39
2023/12/03 01:29:20;;;;;;;;;;;;;;;1.35;100.00;101806.63;5113317;28;19920;-39
2023/12/03 01:31:45;;;;;;;;;;;;;;;1.33;100.00;101823.59;5112089;28;19998;-39
2023/12/03 01:34:11;;;;;;;;;;;;;;;1.34;100.00;101834.09;5113030;28;19955;-41
2023/12/03 01:36:36;;;;;;;;;;;;;;;1.31;100.00;101832.47;5112953;28;19957;-39
2023/12/03 01:39:02;;;;;;;;;;;;;;;1.33;100.00;101835.06;5112513;28;19935;-40
2023/12/03 01:41:27;;;;;;;;;;;;;;;1.42;100.00;101830.94;5112989;28;19950;-39
2023/12/03 01:43:53;;;;;;;;;;;;;;;1.48;100.00;101844.69;5113402;28;20018;-39
2023/12/03 01:46:21;;;;;;;;;;;;;;;1.50;100.00;101845.44;5113595;28;19945;-39
2023/12/03 01:48:46;;;;;;;;;;;;;;;1.53;100.00;101842.59;5112174;28;20014;-39
2023/12/03 01:51:11;;;;;;;;;;;;;;;1.56;100.00;101843.34;5111598;28;19963;-40
2023/12/03 01:53:40;;;;;;;;;;;;;;;1.55;100.00;101831.88;5112838;28;19927;-40
2023/12/03 01:56:06;;;;;;;;;;;;;;;1.53;100.00;101834.63;5112547;28;19919;-40
2023/12/03 01:58:32;;;;;;;;;;;;;;;1.56;100.00;101843.34;5112926;28;19916;-39
2023/12/03 02:00:57;;;;;;;;;;;;;;;1.54;100.00;101835.47;5113076;28;19931;-39
2023/12/03 02:03:22;;;;;;;;;;;;;;;1.50;100.00;101834.84;5113845;28;20427;-39
2023/12/03 02:05:48;;;;;;;;;;;;;;;1.52;100.00;101848.81;5114419;28;19927;-40
2023/12/03 02:08:13;;;;;;;;;;;;;;;1.48;100.00;101839.38;5114738;28;19919;-40
2023/12/03 02:10:38;;;;;;;;;;;;;;;1.44;100.00;101840.50;5116164;28;19920;-39
2023/12/03 02:13:04;;;;;;;;;;;;;;;1.38;100.00;101832.97;5114901;28;19927;-39
2023/12/03 02:15:29;;;;;;;;;;;;;;;1.28;100.00;101835.34;5113391;28;20022;-40
2023/12/03 02:17:54;;;;;;;;;;;;;;;1.23;100.00;101836.59;5113059;28;19972;-38
2023/12/03 02:20:19;;;;;;;;;;;;;;;1.26;100.00;101831.06;5112772;28;19920;-40
2023/12/03 02:22:58;;;;;;;;;;;;;;;1.18;100.00;101826.25;5113228;28;19915;-39
2023/12/03 02:25:23;;;;;;;;;;;;;;;1.16;100.00;101827.31;5112641;28;20327;-39
2023/12/03 02:27:48;;;;;;;;;;;;;;;1.05;100.00;101835.94;5112597;28;19926;-39
2023/12/03 02:30:14;;;;;;;;;;;;;;;1.02;100.00;101847.56;5113079;28;19927;-39
2023/12/03 02:32:39;;;;;;;;;;;;;;;0.97;100.00;101839.06;5114065;28;20418;-38
2023/12/03 02:35:04;;;;;;;;;;;;;;;0.94;100.00;101835.75;5119695;28;20390;-38
2023/12/03 02:37:30;;;;;;;;;;;;;;;0.92;100.00;101829.69;5117392;28;19919;-39
2023/12/03 02:39:55;;;;;;;;;;;;;;;0.90;100.00;101829.81;5117107;28;20435;-39
2023/12/03 02:42:20;;;;;;;;;;;;;;;0.84;100.00;101830.16;5113786;28;19924;-39
2023/12/03 02:44:45;;;;;;;;;;;;;;;0.84;100.00;101838.13;5117582;28;19977;-38
2023/12/03 02:47:11;;;;;;;;;;;;;;;0.80;100.00;101839.25;5121814;28;19920;-41
2023/12/03 02:49:36;;;;;;;;;;;;;;;0.76;100.00;101838.59;5119586;28;20278;-38
2023/12/03 02:52:01;;;;;;;;;;;;;;;0.72;100.00;101836.25;5122604;28;19955;-40
2023/12/03 02:54:26;;;;;;;;;;;;;;;0.68;100.00;101835.56;5120310;28;19931;-38
2023/12/03 02:56:52;;;;;;;;;;;;;;;0.63;100.00;101830.56;5116624;28;19927;-39
2023/12/03 02:59:17;;;;;;;;;;;;;;;0.59;100.00;101831.69;5115453;28;19955;-38
2023/12/03 03:01:42;;;;;;;;;;;;;;;0.62;100.00;101828.84;5115631;28;19919;-38
2023/12/03 03:04:07;;;;;;;;;;;;;;;0.55;100.00;101827.50;5115856;28;19920;-39
2023/12/03 03:06:33;;;;;;;;;;;;;;;0.52;100.00;101832.97;5115761;28;19919;-40
2023/12/03 03:08:58;;;;;;;;;;;;;;;0.51;100.00;101833.94;5115703;28;19923;-38
2023/12/03 03:11:23;;;;;;;;;;;;;;;0.49;100.00;101834.97;5115340;28;19920;-38
2023/12/03 03:13:48;;;;;;;;;;;;;;;0.47;100.00;101824.47;5115411;28;19926;-39
2023/12/03 03:16:14;;;;;;;;;;;;;;;0.48;100.00;101826.19;5114517;28;19955;-40
2023/12/03 03:18:39;;;;;;;;;;;;;;;0.49;100.00;101825.22;5114753;28;19920;-39
2023/12/03 03:21:04;;;;;;;;;;;;;;;0.48;100.00;101823.53;5115607;28;19923;-39
2023/12/03 03:23:29;;;;;;;;;;;;;;;0.48;100.00;101833.28;5117626;28;19922;-40
2023/12/03 03:25:55;;;;;;;;;;;;;;;0.46;100.00;101835.16;5118404;28;19920;-39
2023/12/03 03:28:22;;;;;;;;;;;;;;;0.44;100.00;101832.59;5121568;28;20433;-39
2023/12/03 03:30:47;;;;;;;;;;;;;;;0.42;100.00;101834.47;5117615;28;20060;-39
2023/12/03 03:33:12;;;;;;;;;;;;;;;0.43;100.00;101833.56;5115782;28;19963;-40
2023/12/03 03:35:37;;;;;;;;;;;;;;;0.42;100.00;101840.66;5115118;28;20015;-40
2023/12/03 03:38:03;;;;;;;;;;;;;;;0.38;100.00;101833.81;5114974;28;20072;-39
2023/12/03 03:40:28;;;;;;;;;;;;;;;0.38;100.00;101832.97;5116595;28;19927;-39
2023/12/03 03:42:53;;;;;;;;;;;;;;;0.35;100.00;101828.72;5119657;28;19928;-39
2023/12/03 03:45:18;;;;;;;;;;;;;;;0.36;100.00;101840.16;5122079;28;19922;-39
2023/12/03 03:47:44;;;;;;;;;;;;;;;0.32;100.00;101836.00;5117504;28;19962;-39
2023/12/03 03:50:09;;;;;;;;;;;;;;;0.31;100.00;101836.91;5117306;28;19926;-38
2023/12/03 03:52:34;;;;;;;;;;;;;;;0.33;100.00;101829.75;5115871;28;19926;-39
2023/12/03 03:54:59;;;;;;;;;;;;;;;0.31;100.00;101845.72;5116468;28;20364;-38
2023/12/03 03:57:25;;;;;;;;;;;;;;;0.31;100.00;101836.91;5115350;28;19916;-39
2023/12/03 03:59:50;;;;;;;;;;;;;;;0.26;100.00;101844.28;5114403;28;20022;-38
2023/12/03 04:02:15;;;;;;;;;;;;;;;0.25;100.00;101832.84;5115722;28;20088;-38
2023/12/03 04:04:40;;;;;;;;;;;;;;;0.26;100.00;101842.47;5118655;28;19915;-39
2023/12/03 04:07:06;;;;;;;;;;;;;;;0.29;100.00;101838.81;5117252;28;20278;-39
2023/12/03 04:09:31;;;;;;;;;;;;;;;0.27;100.00;101835.41;5116098;28;20063;-40
2023/12/03 04:11:56;;;;;;;;;;;;;;;0.28;100.00;101842.41;5114473;28;20255;-40
2023/12/03 04:14:22;;;;;;;;;;;;;;;0.25;100.00;101842.59;5114449;28;19978;-40
2023/12/03 04:16:47;;;;;;;;;;;;;;;0.21;100.00;101837.47;5114385;28;19920;-40
2023/12/03 04:19:13;;;;;;;;;;;;;;;0.20;100.00;101851.63;5113291;28;19926;-39
2023/12/03 04:21:39;;;;;;;;;;;;;;;0.19;100.00;101844.66;5113878;28;20271;-40
2023/12/03 04:24:04;;;;;;;;;;;;;;;0.23;100.00;101845.31;5112856;28;19920;-40
2023/12/03 04:26:30;;;;;;;;;;;;;;;0.22;100.00;101846.28;5113507;28;19954;-39
2023/12/03 04:28:55;;;;;;;;;;;;;;;0.21;100.00;101842.78;5113292;28;20354;-39
2023/12/03 04:31:25;;;;;;;;;;;;;;;0.19;100.00;101843.81;5113717;28;20366;-39
2023/12/03 04:33:54;;;;;;;;;;;;;;;0.17;100.00;101841.25;5113682;27;19924;-39
2023/12/03 04:36:22;;;;;;;;;;;;;;;0.18;100.00;101840.28;5113151;28;20463;-39
2023/12/03 04:38:47;;;;;;;;;;;;;;;0.15;100.00;101835.16;5113064;28;19955;-41
2023/12/03 04:41:13;;;;;;;;;;;;;;;0.10;100.00;101842.53;5113606;28;19952;-40
2023/12/03 04:43:38;;;;;;;;;;;;;;;0.10;100.00;101834.59;5120094;28;19928;-40
2023/12/03 04:46:04;;;;;;;;;;;;;;;0.10;100.00;101839.88;5121200;28;19958;-40
2023/12/03 04:48:29;;;;;;;;;;;;;;;0.09;100.00;101835.53;5119114;28;20289;-40
2023/12/03 04:50:54;;;;;;;;;;;;;;;0.07;100.00;101837.41;5114513;28;19923;-40
2023/12/03 04:53:19;;;;;;;;;;;;;;;0.05;100.00;101841.09;5112960;28;19927;-39
2023/12/03 04:55:45;;;;;;;;;;;;;;;0.04;100.00;101844.69;5113512;28;19923;-39
2023/12/03 04:58:10;;;;;;;;;;;;;;;0.03;100.00;101843.84;5112800;28;19920;-39
2023/12/03 05:00:35;;;;;;;;;;;;;;;0.02;100.00;101847.41;5113277;28;20006;-39
2023/12/03 05:03:00;;;;;;;;;;;;;;;0.03;100.00;101843.84;5111908;28;19924;-39
2023/12/03 05:05:25;;;;;;;;;;;;;;;-0.01;100.00;101848.44;5112779;28;19968;-39
2023/12/03 05:07:51;;;;;;;;;;;;;;;0.01;100.00;101839.59;5113106;28;19920;-39
2023/12/03 05:10:16;;;;;;;;;;;;;;;0.00;100.00;101841.38;5112944;28;20275;-39
2023/12/03 05:12:42;;;;;;;;;;;;;;;-0.01;100.00;101837.03;5113309;28;20265;-40
2023/12/03 05:15:08;;;;;;;;;;;;;;;-0.01;100.00;101843.16;5113085;28;19919;-40
2023/12/03 05:17:33;;;;;;;;;;;;;;;-0.05;100.00;101839.00;5112716;28;19919;-40
2023/12/03 05:19:58;;;;;;;;;;;;;;;-0.04;100.00;101842.50;5112739;28;19919;-38
2023/12/03 05:22:24;;;;;;;;;;;;;;;-0.06;100.00;101834.63;5111675;28;19969;-38
2023/12/03 05:24:49;;;;;;;;;;;;;;;-0.06;100.00;101834.63;5112864;28;20283;-40
2023/12/03 05:27:14;;;;;;;;;;;;;;;-0.05;100.00;101838.16;5112815;28;19963;-37
2023/12/03 05:29:41;;;;;;;;;;;;;;;-0.06;100.00;101844.38;5112696;28;19920;-39
2023/12/03 05:32:06;;;;;;;;;;;;;;;-0.09;100.00;101841.91;5113240;28;20354;-39
2023/12/03 05:34:31;;;;;;;;;;;;;;;-0.07;100.00;101846.16;5109672;28;20865;-39
2023/12/03 05:36:56;;;;;;;;;;;;;;;-0.11;100.00;101846.44;5109022;28;19953;-39
2023/12/03 05:39:22;;;;;;;;;;;;;;;-0.10;100.00;101850.78;5110521;28;19923;-38
2023/12/03 05:41:47;;;;;;;;;;;;;;;-0.12;100.00;101844.72;5110607;28;20018;-39
2023/12/03 05:44:13;;;;;;;;;;;;;;;-0.02;100.00;101845.91;5110591;28;19924;-39
2023/12/03 05:46:42;;;;;;;;;;;;;;;-0.11;100.00;101851.72;5110321;28;20399;-38
2023/12/03 05:49:08;;;;;;;;;;;;;;;-0.13;100.00;101854.47;5110929;28;20374;-40
2023/12/03 05:51:33;;;;;;;;;;;;;;;-0.14;100.00;101858.03;5108555;28;19970;-39
2023/12/03 05:53:59;;;;;;;;;;;;;;;-0.18;100.00;101850.38;5110075;28;19977;-39
2023/12/03 05:56:24;;;;;;;;;;;;;;;-0.20;100.00;101858.41;5110425;28;20679;-39
2023/12/03 05:58:49;;;;;;;;;;;;;;;-0.24;100.00;101852.44;5109945;28;20437;-38
2023/12/03 06:01:21;;;;;;;;;;;;;;;-0.26;100.00;101854.31;5110092;28;20446;-39
2023/12/03 06:03:47;;;;;;;;;;;;;;;-0.25;100.00;101853.34;5110004;28;20054;-39
2023/12/03 06:06:12;;;;;;;;;;;;;;;-0.28;100.00;101856.19;5110873;28;20006;-40
2023/12/03 06:08:38;;;;;;;;;;;;;;;-0.38;100.00;101857.63;5110391;28;19924;-38
2023/12/03 06:11:03;;;;;;;;;;;;;;;-0.39;100.00;101874.47;5109988;28;19945;-39
2023/12/03 06:13:28;;;;;;;;;;;;;;;-0.43;100.00;101867.63;5110736;28;19947;-41
2023/12/03 06:15:54;;;;;;;;;;;;;;;-0.42;100.00;101865.81;5111123;28;20285;-40
2023/12/03 06:18:21;;;;;;;;;;;;;;;-0.41;100.00;101873.69;5113763;28;19919;-40
2023/12/03 06:20:46;;;;;;;;;;;;;;;-0.42;100.00;101864.06;5113957;28;19920;-38
2023/12/03 06:23:11;;;;;;;;;;;;;;;-0.43;100.00;101866.78;5114332;28;19922;-39
2023/12/03 06:25:37;;;;;;;;;;;;;;;-0.47;100.00;101868.75;5113748;28;19923;-40
2023/12/03 06:28:02;;;;;;;;;;;;;;;-0.51;100.00;101862.75;5114052;28;19934;-41
2023/12/03 06:30:27;;;;;;;;;;;;;;;-0.49;100.00;101858.25;5113216;28;20021;-39
2023/12/03 06:32:52;;;;;;;;;;;;;;;-0.55;100.00;101863.03;5114159;28;19932;-40
2023/12/03 06:35:18;;;;;;;;;;;;;;;-0.61;100.00;101853.63;5114461;28;19915;-40
2023/12/03 06:37:43;;;;;;;;;;;;;;;-0.59;100.00;101853.56;5113844;28;20054;-41
2023/12/03 06:40:08;;;;;;;;;;;;;;;-0.62;100.00;101851.94;5113729;28;19920;-40
2023/12/03 06:42:34;;;;;;;;;;;;;;;-0.63;100.00;101846.72;5114129;28;19934;-40
2023/12/03 06:44:59;;;;;;;;;;;;;;;-0.62;100.00;101848.44;5114047;28;19919;-40
2023/12/03 06:47:24;;;;;;;;;;;;;;;-0.65;100.00;101845.97;5121199;28;19928;-39
2023/12/03 06:49:49;;;;;;;;;;;;;;;-0.70;100.00;101852.34;5119428;28;19984;-38
2023/12/03 06:52:14;;;;;;;;;;;;;;;-0.74;100.00;101847.31;5118914;28;20010;-40
2023/12/03 06:54:40;;;;;;;;;;;;;;;-0.74;100.00;101848.19;5121652;28;19928;-43
2023/12/03 06:57:06;;;;;;;;;;;;;;;-0.72;100.00;101846.28;5118506;28;20008;-39
2023/12/03 06:59:31;;;;;;;;;;;;;;;-0.75;100.00;101846.47;5120534;28;19919;-39
2023/12/03 07:01:56;;;;;;;;;;;;;;;-0.74;100.00;101842.03;5120113;28;19930;-39
2023/12/03 07:04:22;;;;;;;;;;;;;;;-0.75;100.00;101853.53;5115695;28;19919;-39
2023/12/03 07:06:47;;;;;;;;;;;;;;;-0.76;100.00;101855.34;5113322;28;19924;-39
2023/12/03 07:09:14;;;;;;;;;;;;;;;-0.75;100.00;101853.53;5116439;28;19924;-39
2023/12/03 07:11:39;;;;;;;;;;;;;;;-0.76;100.00;101857.13;5116721;28;19923;-39
2023/12/03 07:14:04;;;;;;;;;;;;;;;-0.74;100.00;101858.75;5113426;28;20050;-39
2023/12/03 07:16:30;;;;;;;;;;;;;;;-0.72;100.00;101862.16;5113781;28;19916;-38
2023/12/03 07:18:55;;;;;;;;;;;;;;;-0.70;100.00;101867.38;5114467;28;19954;-39
2023/12/03 07:21:20;;;;;;;;;;;;;;;-0.68;100.00;101860.22;5112775;28;19920;-39
2023/12/03 07:23:45;;;;;;;;;;;;;;;-0.69;100.00;101864.63;5112817;28;19916;-40
2023/12/03 07:26:11;;;;;;;;;;;;;;;-0.68;100.00;101858.41;5112413;28;19920;-40
2023/12/03 07:28:36;;;;;;;;;;;;;;;-0.61;100.00;101855.41;5113114;28;20426;-38
2023/12/03 07:31:02;;;;;;;;;;;;;;;-0.64;100.00;101853.81;5107391;28;19932;-39
2023/12/03 07:33:27;;;;;;;;;;;;;;;-0.71;100.00;101853.31;5092354;28;19920;-37
2023/12/03 07:35:53;;;;;;;;;;;;;;;-0.70;100.00;101857.63;5092422;28;19923;-38
2023/12/03 07:38:18;;;;;;;;;;;;;;;-0.73;100.00;101857.81;5092294;28;20003;-39
2023/12/03 07:40:43;;;;;;;;;;;;;;;-0.69;100.00;101867.25;5098219;28;20018;-39
2023/12/03 07:43:08;;;;;;;;;;;;;;;-0.74;100.00;101861.41;5112916;28;19923;-39
2023/12/03 07:45:34;;;;;;;;;;;;;;;-0.68;100.00;101873.44;5112284;28;19920;-39
2023/12/03 07:47:59;;;;;;;;;;;;;;;-0.61;100.00;101871.28;5112710;28;20377;-39
2023/12/03 07:50:24;;;;;;;;;;;;;;;-0.63;100.00;101870.50;5112216;28;19930;-38
2023/12/03 07:52:49;;;;;;;;;;;;;;;-0.56;100.00;101878.03;5113000;28;19927;-39
2023/12/03 07:55:15;;;;;;;;;;;;;;;-0.58;100.00;101873.75;5112524;28;19981;-39
2023/12/03 07:57:40;;;;;;;;;;;;;;;-0.59;100.00;101877.34;5111262;28;20006;-40
2023/12/03 08:00:06;;;;;;;;;;;;;;;-0.54;100.00;101870.00;5111275;28;19916;-40
2023/12/03 08:02:31;;;;;;;;;;;;;;;-0.56;100.00;101877.19;5112616;28;19924;-40
2023/12/03 08:04:56;;;;;;;;;;;;;;;-0.51;100.00;101875.13;5112097;28;19927;-39
2023/12/03 08:07:22;;;;;;;;;;;;;;;-0.39;100.00;101885.03;5108956;28;20295;-39
2023/12/03 08:09:48;;;;;;;;;;;;;;;-0.40;100.00;101885.97;5110182;28;19949;-38
2023/12/03 08:12:13;;;;;;;;;;;;;;;-0.35;100.00;101889.19;5113117;28;20010;-39
2023/12/03 08:14:38;;;;;;;;;;;;;;;-0.38;100.00;101885.88;5111834;28;20042;-39
2023/12/03 08:17:04;;;;;;;;;;;;;;;-0.39;100.00;101884.19;5111848;28;19966;-39
2023/12/03 08:19:29;;;;;;;;;;;;;;;-0.32;100.00;101881.09;5112412;28;19924;-38
2023/12/03 08:21:54;;;;;;;;;;;;;;;-0.32;100.00;101875.78;5113471;28;19916;-40
2023/12/03 08:24:19;;;;;;;;;;;;;;;-0.21;100.00;101867.28;5116440;28;20034;-40
2023/12/03 08:26:45;;;;;;;;;;;;;;;-0.19;100.00;101864.53;5118208;28;19927;-40
2023/12/03 08:29:11;;;;;;;;;;;;;;;-0.10;100.00;101864.03;5118199;28;20343;-41
2023/12/03 08:31:37;;;;;;;;;;;;;;;-0.14;100.00;101854.53;5115934;28;19948;-40
2023/12/03 08:34:03;;;;;;;;;;;;;;;0.09;100.00;101862.00;5122402;28;19983;-39
2023/12/03 08:36:31;;;;;;;;;;;;;;;0.51;100.00;101860.44;5122204;28;19927;-41
2023/12/03 08:38:56;;;;;;;;;;;;;;;0.50;100.00;101850.78;5119481;27;19919;-40
2023/12/03 08:41:22;;;;;;;;;;;;;;;0.50;100.00;101848.13;5114639;28;19922;-40
2023/12/03 08:43:47;;;;;;;;;;;;;;;0.25;100.00;101847.88;5114085;27;19919;-40
2023/12/03 08:46:13;;;;;;;;;;;;;;;0.44;100.00;101844.03;5113143;28;19920;-40
2023/12/03 08:48:38;;;;;;;;;;;;;;;0.43;100.00;101838.84;5117797;28;20284;-40
2023/12/03 08:51:04;;;;;;;;;;;;;;;0.53;100.00;101833.84;5116358;28;20007;-40
2023/12/03 08:53:30;;;;;;;;;;;;;;;0.60;100.00;101837.81;5112857;28;19926;-39
2023/12/03 08:55:58;;;;;;;;;;;;;;;0.42;100.00;101822.09;5112082;28;20284;-39
2023/12/03 08:58:23;;;;;;;;;;;;;;;0.45;100.00;101821.06;5111816;28;19926;-40
2023/12/03 09:00:51;;;;;;;;;;;;;;;0.48;100.00;101822.69;5111024;28;19916;-40
2023/12/03 09:03:16;;;;;;;;;;;;;;;0.63;100.00;101822.59;5109638;28;20213;-39
2023/12/03 09:05:41;;;;;;;;;;;;;;;0.81;100.00;101830.34;5111417;28;19920;-39
2023/12/03 09:08:07;;;;;;;;;;;;;;;0.67;100.00;101822.41;5111647;28;19932;-39
2023/12/03 09:10:34;;;;;;;;;;;;;;;0.63;100.00;101814.66;5109884;28;20464;-40
2023/12/03 09:12:59;;;;;;;;;;;;;;;0.70;100.00;101801.03;5109840;28;19920;-40
2023/12/03 09:15:24;;;;;;;;;;;;;;;0.63;100.00;101804.06;5109952;28;19920;-39
2023/12/03 09:17:50;;;;;;;;;;;;;;;0.61;100.00;101797.16;5110304;28;19916;-40
2023/12/03 09:20:15;;;;;;;;;;;;;;;0.53;100.00;101789.69;5109700;28;20328;-40
2023/12/03 09:22:41;;;;;;;;;;;;;;;0.51;100.00;101788.91;5111383;28;20010;-40
2023/12/03 09:25:06;;;;;;;;;;;;;;;0.51;100.00;101794.22;5111510;28;19969;-40
2023/12/03 09:27:33;;;;;;;;;;;;;;;0.64;100.00;101791.66;5111396;28;19919;-39
2023/12/03 09:29:58;;;;;;;;;;;;;;;0.60;100.00;101798.94;5110907;28;19926;-38
2023/12/03 09:32:23;;;;;;;;;;;;;;;0.60;100.00;101801.56;5110177;28;19923;-39
2023/12/03 09:34:49;;;;;;;;;;;;;;;0.68;100.00;101795.81;5110765;28;19930;-40
2023/12/03 09:37:14;;;;;;;;;;;;;;;0.69;100.00;101815.22;5112092;28;20111;-40
2023/12/03 09:39:39;;;;;;;;;;;;;;;0.63;100.00;101811.13;5112599;28;19922;-39
2023/12/03 09:42:04;;;;;;;;;;;;;;;0.73;100.00;101812.28;5111679;28;19962;-39
2023/12/03 09:44:33;;;;;;;;;;;;;;;0.65;100.00;101809.25;5109371;28;20267;-39
2023/12/03 09:46:58;;;;;;;;;;;;;;;0.80;100.00;101812.75;5089021;28;19999;-40
2023/12/03 09:49:23;;;;;;;;;;;;;;;0.75;100.00;101804.25;5124437;28;20014;-40
2023/12/03 09:51:49;;;;;;;;;;;;;;;0.82;100.00;101810.88;5111326;28;19932;-39
2023/12/03 09:54:14;;;;;;;;;;;;;;;0.76;100.00;101816.53;5113965;28;20370;-39
2023/12/03 09:56:42;;;;;;;;;;;;;;;0.63;100.00;101808.50;5115048;28;20389;-40
2023/12/03 09:59:07;;;;;;;;;;;;;;;0.71;100.00;101802.72;5114988;28;20331;-39
2023/12/03 10:01:32;;;;;;;;;;;;;;;0.71;100.00;101802.72;5114651;28;19926;-40
2023/12/03 10:03:57;;;;;;;;;;;;;;;0.72;100.00;101799.16;5112545;28;20361;-39
2023/12/03 10:06:23;;;;;;;;;;;;;;;0.71;100.00;101800.06;5111094;28;19920;-40
2023/12/03 10:08:48;;;;;;;;;;;;;;;0.83;100.00;101796.66;5116159;28;19920;-40
2023/12/03 10:11:14;;;;;;;;;;;;;;;0.73;100.00;101806.97;5125336;28;19924;-41
2023/12/03 10:13:39;;;;;;;;;;;;;;;0.64;100.00;101802.25;5123261;28;20339;-40
2023/12/03 10:16:06;;;;;;;;;;;;;;;0.66;100.00;101808.31;5118224;28;19915;-39
2023/12/03 10:18:32;;;;;;;;;;;;;;;0.65;100.00;101802.16;5117052;28;19919;-39
2023/12/03 10:21:15;;;;;;;;;;;;;;;0.59;100.00;101794.59;5116405;28;20400;-39
2023/12/03 10:23:41;;;;;;;;;;;;;;;0.57;100.00;101790.34;5117044;28;19927;-40
2023/12/03 10:26:10;;;;;;;;;;;;;;;0.54;100.00;101786.06;5117997;28;19924;-40
2023/12/03 10:28:35;;;;;;;;;;;;;;;0.53;100.00;101781.72;5118177;28;19920;-40
2023/12/03 10:31:00;;;;;;;;;;;;;;;0.49;100.00;101766.97;5117173;28;20310;-39
2023/12/03 10:33:25;;;;;;;;;;;;;;;0.51;100.00;101767.72;5118601;28;19927;-40
2023/12/03 10:35:51;;;;;;;;;;;;;;;0.57;100.00;101771.78;5114469;28;19963;-40
2023/12/03 10:38:16;;;;;;;;;;;;;;;0.47;100.00;101776.78;5094968;28;19920;-39
2023/12/03 10:40:41;;;;;;;;;;;;;;;0.54;100.00;101767.53;5115118;28;20249;-40
2023/12/03 10:43:07;;;;;;;;;;;;;;;0.49;100.00;101771.41;5120259;27;19920;-38
2023/12/03 10:45:32;;;;;;;;;;;;;;;0.50;100.00;101768.69;5114217;27;20281;-37
2023/12/03 10:47:59;;;;;;;;;;;;;;;0.57;100.00;101763.84;5115689;28;19923;-38
2023/12/03 10:50:24;;;;;;;;;;;;;;;0.55;100.00;101757.78;5116561;28;19955;-40
2023/12/03 10:52:49;;;;;;;;;;;;;;;0.59;100.00;101760.16;5114700;28;19938;-40
2023/12/03 10:55:14;;;;;;;;;;;;;;;0.63;100.00;101758.16;5115609;28;19926;-38
2023/12/03 10:57:47;;;;;;;;;;;;;;;0.62;100.00;101752.00;5119014;28;19920;-39
2023/12/03 11:00:12;;;;;;;;;;;;;;;0.74;100.00;101754.84;5118224;28;20395;-39
2023/12/03 11:02:45;;;;;;;;;;;;;;;0.76;100.00;101755.59;5117326;28;19919;-39
2023/12/03 11:05:11;;;;;;;;;;;;;;;0.87;100.00;101758.44;5122439;27;19915;-39
2023/12/03 11:07:36;;;;;;;;;;;;;;;0.99;100.00;101749.69;5109456;28;20447;-39
2023/12/03 11:10:02;;;;;;;;;;;;;;;1.06;100.00;101744.88;5117806;28;19932;-37
2023/12/03 11:12:27;;;;;;;;;;;;;;;1.20;100.00;101746.63;5114807;28;19924;-39
2023/12/03 11:14:54;;;;;;;;;;;;;;;1.02;100.00;101744.19;5114544;27;19924;-38
2023/12/03 11:17:25;;;;;;;;;;;;;;;1.14;100.00;101747.03;5116394;28;19927;-40
2023/12/03 11:19:51;;;;;;;;;;;;;;;1.15;100.00;101738.13;5125252;27;19930;-39
2023/12/03 11:22:36;;;;;;;;;;;;;;;1.24;100.00;101735.72;5135474;27;20289;-39
2023/12/03 11:25:06;;;;;;;;;;;;;;;1.44;100.00;101728.25;5116970;28;19923;-38
2023/12/03 11:27:31;;;;;;;;;;;;;;;1.47;100.00;101733.34;5112803;28;19920;-39
2023/12/03 11:29:57;;;;;;;;;;;;;;;1.50;100.00;101728.72;5112780;28;19928;-39
2023/12/03 11:32:26;;;;;;;;;;;;;;;1.44;100.00;101731.75;5111192;28;19965;-39
2023/12/03 11:35:01;;;;;;;;;;;;;;;1.66;100.00;101728.56;5113564;28;19923;-39
2023/12/03 11:37:27;;;;;;;;;;;;;;;1.85;100.00;101716.69;5110392;28;20342;-40
2023/12/03 11:39:56;;;;;;;;;;;;;;;1.97;100.00;101722.03;5112893;28;20018;-39
2023/12/03 11:42:25;;;;;;;;;;;;;;;1.90;100.00;101734.00;5112919;28;19920;-40
2023/12/03 11:44:50;;;;;;;;;;;;;;;1.92;100.00;101729.47;5113761;28;19923;-41
2023/12/03 11:47:15;;;;;;;;;;;;;;;2.01;100.00;101724.47;5114637;28;19920;-40
2023/12/03 11:49:41;;;;;;;;;;;;;;;2.20;100.00;101727.53;5114567;28;20335;-39
2023/12/03 11:52:06;;;;;;;;;;;;;;;2.26;100.00;101713.84;5113497;28;20022;-40
2023/12/03 11:54:38;;;;;;;;;;;;;;;2.28;100.00;101708.44;5117087;28;19926;-40
2023/12/03 11:57:10;;;;;;;;;;;;;;;2.35;100.00;101710.56;5117089;28;19919;-39
2023/12/03 11:59:36;;;;;;;;;;;;;;;2.16;100.00;101716.31;5114754;28;19916;-38
2023/12/03 12:02:01;;;;;;;;;;;;;;;1.88;100.00;101716.47;5114762;28;20296;-39
2023/12/03 12:04:26;;;;;;;;;;;;;;;1.81;100.00;101700.09;5116833;28;19920;-40
2023/12/03 12:06:52;;;;;;;;;;;;;;;1.94;100.00;101700.97;5117998;28;19923;-40
2023/12/03 12:09:21;;;;;;;;;;;;;;;1.92;100.00;101702.91;5119262;28;20370;-40
2023/12/03 12:11:47;;;;;;;;;;;;;;;1.84;100.00;101696.41;5117595;28;19936;-40
2023/12/03 12:14:12;;;;;;;;;;;;;;;1.80;100.00;101695.78;5119169;28;19923;-39
2023/12/03 12:16:37;;;;;;;;;;;;;;;1.77;100.00;101703.94;5119235;28;19931;-40
2023/12/03 12:19:04;;;;;;;;;;;;;;;1.90;100.00;101698.66;5098168;28;19924;-39
2023/12/03 12:21:29;;;;;;;;;;;;;;;1.65;100.00;101707.41;5114323;28;19919;-40
2023/12/03 12:23:54;;;;;;;;;;;;;;;1.68;100.00;101696.59;5113534;28;19920;-38
2023/12/03 12:26:19;;;;;;;;;;;;;;;1.70;100.00;101697.34;5112194;28;19923;-39